createdAt,value
2023-02-01T00:01:34.445Z,32.90
2023-02-01T00:04:03.166Z,36.70
2023-02-01T00:06:33.007Z,42.70
2023-02-01T00:09:02.436Z,36.60
2023-02-01T00:11:31.592Z,38.50
2023-02-01T00:14:00.954Z,35.60
2023-02-01T00:16:30.795Z,37.90
2023-02-01T00:19:03.397Z,39.10
2023-02-01T00:21:32.362Z,37.40
2023-02-01T00:24:00.968Z,32.50
2023-02-01T00:26:37.288Z,40.50
2023-02-01T00:29:07.726Z,39.50
2023-02-01T00:31:36.387Z,39.20
2023-02-01T00:34:05.007Z,40.00
2023-02-01T00:36:34.847Z,36.80
2023-02-01T00:39:03.777Z,37.30
2023-02-01T00:41:34.410Z,41.90
2023-02-01T00:44:03.550Z,42.80
2023-02-01T00:46:32.227Z,39.40
2023-02-01T00:49:00.831Z,45.90
2023-02-01T00:51:30.219Z,41.20
2023-02-01T00:53:58.839Z,35.90
2023-02-01T00:56:28.901Z,51.70
2023-02-01T00:58:57.679Z,44.20
2023-02-01T01:01:27.511Z,36.80
2023-02-01T01:03:58.642Z,41.70
2023-02-01T01:06:29.332Z,36.60
2023-02-01T01:08:59.658Z,39.30
2023-02-01T01:11:30.542Z,40.30
2023-02-01T01:13:59.777Z,43.20
2023-02-01T01:16:29.768Z,45.40
2023-02-01T01:18:59.124Z,43.20
2023-02-01T01:21:27.980Z,44.10
2023-02-01T01:23:56.723Z,42.00
2023-02-01T01:26:27.009Z,37.70
2023-02-01T01:28:57.580Z,47.80
2023-02-01T01:31:26.601Z,49.30
2023-02-01T14:32:07.934Z,41.00
2023-02-01T14:34:47.313Z,42.70
2023-02-01T14:37:19.746Z,48.20
2023-02-01T14:39:48.553Z,47.50
2023-02-01T14:42:28.238Z,41.10
2023-02-01T14:45:23.980Z,46.60
2023-02-01T14:47:55.947Z,46.50
2023-02-01T14:50:28.415Z,41.00
2023-02-01T14:53:12.406Z,44.60
2023-02-01T14:56:02.750Z,43.30
2023-02-01T14:58:31.789Z,40.70
2023-02-01T15:01:14.654Z,37.00
2023-02-01T15:03:45.897Z,40.80
2023-02-01T15:06:25.660Z,35.20
2023-02-01T15:08:59.693Z,41.00
2023-02-01T15:11:28.944Z,32.10
2023-02-01T15:13:58.369Z,32.40
2023-02-01T15:16:27.324Z,40.60
2023-02-01T15:19:11.018Z,34.70
2023-02-01T15:21:47.065Z,41.10
2023-02-01T15:24:23.638Z,38.70
2023-02-01T15:26:53.640Z,35.30
2023-02-01T15:29:26.608Z,41.50
2023-02-01T15:31:55.327Z,36.90
2023-02-01T15:34:24.927Z,46.10
2023-02-01T15:37:03.417Z,38.60
2023-02-01T15:39:33.551Z,36.20
2023-02-01T15:42:16.577Z,45.70
2023-02-01T15:44:47.263Z,42.80
2023-02-01T15:47:30.005Z,47.50
2023-02-01T15:50:00.165Z,43.00
2023-02-01T15:52:36.809Z,49.00
2023-02-01T15:55:18.695Z,50.00
2023-02-01T15:57:48.958Z,45.40
2023-02-01T16:00:34.872Z,49.00
2023-02-01T16:03:07.157Z,49.30
2023-02-01T16:05:38.709Z,67.30
2023-02-01T16:08:13.751Z,66.50
2023-02-01T16:10:44.766Z,59.10
2023-02-01T16:13:14.187Z,68.80
2023-02-01T16:15:43.287Z,57.60
2023-02-01T16:18:13.364Z,49.70
2023-02-01T16:20:44.130Z,58.40
2023-02-01T16:23:14.251Z,56.60
2023-02-01T16:25:44.572Z,72.90
2023-02-01T16:28:14.315Z,70.40
2023-02-01T16:30:44.609Z,77.20
2023-02-01T16:33:22.031Z,74.00
2023-02-01T16:35:52.186Z,74.90
2023-02-01T16:38:35.274Z,82.60
2023-02-01T16:41:06.774Z,81.70
2023-02-01T16:43:36.615Z,74.30
2023-02-01T16:46:05.488Z,82.60
2023-02-01T16:48:35.757Z,76.90
2023-02-01T16:51:10.288Z,82.30
2023-02-01T16:53:53.482Z,74.80
2023-02-01T16:56:24.977Z,78.80
2023-02-01T16:58:55.537Z,76.20
2023-02-01T17:01:25.075Z,75.10
2023-02-01T17:03:53.858Z,78.30
2023-02-01T17:06:25.508Z,80.00
2023-02-01T17:08:56.249Z,67.20
2023-02-01T17:11:25.262Z,71.50
2023-02-01T17:13:54.494Z,63.00
2023-02-01T17:16:30.396Z,59.30
2023-02-01T17:19:08.244Z,61.30
2023-02-01T17:21:46.245Z,68.80
2023-02-01T17:24:16.698Z,55.00
2023-02-01T17:26:46.940Z,61.40
2023-02-01T17:29:18.275Z,57.70
2023-02-01T17:31:49.174Z,64.80
2023-02-01T17:34:19.375Z,75.60
2023-02-01T17:36:48.375Z,65.90
2023-02-01T17:39:36.065Z,72.10
2023-02-01T17:42:05.932Z,63.60
2023-02-01T17:44:35.387Z,64.10
2023-02-01T17:47:04.633Z,73.50
2023-02-01T17:49:35.453Z,73.50
2023-02-01T17:52:04.266Z,70.60
2023-02-01T17:54:34.153Z,66.20
2023-02-01T17:57:04.076Z,62.00
2023-02-01T17:59:34.381Z,62.60
2023-02-01T18:02:03.207Z,67.60
2023-02-01T18:04:32.280Z,63.00
2023-02-01T18:07:01.038Z,55.30
2023-02-01T18:09:30.118Z,62.50
2023-02-01T18:11:59.056Z,62.30
2023-02-01T18:14:27.904Z,56.00
2023-02-01T18:16:57.408Z,62.40
2023-02-01T18:19:27.828Z,62.50
2023-02-01T18:21:58.152Z,57.90
2023-02-01T18:24:28.207Z,60.40
2023-02-01T18:26:57.281Z,58.00
2023-02-01T18:29:26.339Z,57.00
2023-02-01T18:31:55.727Z,53.80
2023-02-01T18:34:25.768Z,56.30
2023-02-01T18:36:54.816Z,49.30
2023-02-01T18:39:23.898Z,55.80
2023-02-01T18:41:53.090Z,43.90
2023-02-01T18:44:22.166Z,53.50
2023-02-01T18:46:52.068Z,54.40
2023-02-01T18:49:21.310Z,66.20
2023-02-01T18:51:52.321Z,58.20
2023-02-01T18:54:21.013Z,61.40
2023-02-01T18:56:50.968Z,58.30
2023-02-01T18:59:20.063Z,55.10
2023-02-01T19:01:49.811Z,55.60
2023-02-01T19:04:23.397Z,67.90
2023-02-01T19:06:54.739Z,61.70
2023-02-01T19:09:24.197Z,70.80
2023-02-01T19:11:53.557Z,61.50
2023-02-01T19:14:22.510Z,58.80
2023-02-01T19:16:51.420Z,53.60
2023-02-01T19:19:20.078Z,58.10
2023-02-01T19:21:51.039Z,63.10
2023-02-01T19:24:19.852Z,59.50
2023-02-01T19:26:50.555Z,63.00
2023-02-01T19:29:19.317Z,68.10
2023-02-01T19:31:48.747Z,64.60
2023-02-01T23:02:08.015Z,50.40
2023-02-01T23:04:40.394Z,45.10
2023-02-01T23:07:09.405Z,48.00
2023-02-01T23:09:38.406Z,46.40
2023-02-01T23:12:07.086Z,47.90
2023-02-01T23:14:55.477Z,48.40
2023-02-01T23:17:24.409Z,52.20
2023-02-01T23:19:53.079Z,47.50
2023-02-01T23:22:21.615Z,44.90
2023-02-01T23:24:50.081Z,49.60
2023-02-01T23:27:20.061Z,41.80
2023-02-01T23:29:48.631Z,48.20
2023-02-01T23:32:18.645Z,48.10
2023-02-01T23:34:47.556Z,41.60
2023-02-01T23:37:16.078Z,41.50
2023-02-01T23:39:44.644Z,39.10
2023-02-01T23:42:13.264Z,45.20
2023-02-01T23:44:41.945Z,44.50
2023-02-01T23:47:11.375Z,36.10
2023-02-01T23:49:40.197Z,42.30
2023-02-01T23:52:09.195Z,40.00
2023-02-01T23:54:38.059Z,50.20
2023-02-01T23:57:07.083Z,40.70
2023-02-01T23:59:35.614Z,43.90
